METAR Data
IDs: Format: Raw Decoded Include TAF

Data at: 1031 UTC 26 Sep 2018

KAZC 261015Z AUTO 14004KT 10SM CLR 06/00 A3021 RMK AO2
KAZC 260955Z AUTO 10003KT 10SM CLR 06/00 A3021 RMK AO2
KAZC 260935Z AUTO 14004KT 10SM CLR 06/00 A3021 RMK AO2
KAZC 260915Z AUTO 13004KT 10SM CLR 06/00 A3021 RMK AO2
KAZC 260855Z AUTO 15003KT 10SM CLR 07/01 A3020 RMK AO2
KAZC 260835Z AUTO 13003KT 10SM CLR 07/00 A3020 RMK AO2
KAZC 260815Z AUTO 15004KT 10SM CLR 08/01 A3019 RMK AO2
KAZC 260755Z AUTO 15003KT 10SM CLR 10/01 A3019 RMK AO2
KAZC 260735Z AUTO 00000KT 10SM CLR 09/01 A3019 RMK AO2
KAZC 260715Z AUTO 12004KT 10SM CLR 09/01 A3018 RMK AO2
KAZC 260655Z AUTO 15004KT 10SM CLR 09/01 A3018 RMK AO2
KAZC 260635Z AUTO 10005KT 10SM CLR 10/01 A3018 RMK AO2
KAZC 260615Z AUTO 08004KT 10SM CLR 10/02 A3018 RMK AO2
KAZC 260555Z AUTO 14003KT 10SM CLR 10/02 A3018 RMK AO2
KAZC 260535Z AUTO 07005KT 10SM CLR 11/02 A3017 RMK AO2
KAZC 260515Z AUTO 00000KT 10SM CLR 11/01 A3017 RMK AO2
KAZC 260455Z AUTO 00000KT 10SM CLR 13/01 A3017 RMK AO2
KAZC 260435Z AUTO 00000KT 10SM CLR 14/02 A3016 RMK AO2
KAZC 260415Z AUTO 00000KT 10SM CLR 14/01 A3015 RMK AO2
KAZC 260355Z AUTO 00000KT 10SM CLR 14/01 A3015 RMK AO2
KAZC 260335Z AUTO 10SM CLR 16/01 A3015 RMK AO2
KAZC 260315Z AUTO 36004KT 10SM CLR 18/01 A3013 RMK AO2
KAZC 260255Z AUTO 02004KT 10SM CLR 18/01 A3013 RMK AO2
KAZC 260235Z AUTO 03003KT 10SM CLR 17/01 A3013 RMK AO2
KAZC 260215Z AUTO 36004KT 10SM CLR 20/01 A3012 RMK AO2
KAZC 260155Z AUTO 00000KT 10SM CLR 23/00 A3012 RMK AO2
KAZC 260135Z AUTO 30004KT 10SM CLR 23/00 A3012 RMK AO2
KAZC 260115Z AUTO 29005KT 10SM CLR 26/00 A3012 RMK AO2
KAZC 260055Z AUTO 29008KT 10SM CLR 26/00 A3011 RMK AO2
KAZC 260035Z AUTO 30006G14KT 10SM CLR 27/00 A3011 RMK AO2
KAZC 260015Z AUTO 28005KT 10SM CLR 28/00 A3011 RMK AO2
KAZC 252355Z AUTO 28007KT 10SM CLR 28/00 A3011 RMK AO2
KAZC 252335Z AUTO 31010G14KT 10SM CLR 28/00 A3011 RMK AO2
KAZC 252315Z AUTO 28006G10KT 10SM CLR 28/00 A3011 RMK AO2
KAZC 252255Z AUTO 27012G16KT 10SM CLR 30/00 A3011 RMK AO2
KAZC 252235Z AUTO 29011KT 10SM CLR 30/00 A3011 RMK AO2
KAZC 252215Z AUTO 27011G17KT 10SM CLR 30/01 A3011 RMK AO2
KAZC 252155Z AUTO 29010G16KT 10SM CLR 30/01 A3011 RMK AO2
KAZC 252135Z AUTO 29008G16KT 10SM CLR 30/01 A3012 RMK AO2
KAZC 252115Z AUTO 28009G14KT 10SM CLR 30/01 A3013 RMK AO2
KAZC 252055Z AUTO 31005KT 10SM CLR 30/01 A3013 RMK AO2
KAZC 252035Z AUTO 31008KT 270V330 10SM CLR 29/01 A3014 RMK AO2
KAZC 252015Z AUTO 32007KT 10SM CLR 29/01 A3015 RMK AO2
KAZC 251955Z AUTO 28008KT 260V320 10SM CLR 28/01 A3015 RMK AO2
KAZC 251935Z AUTO 00000KT 10SM CLR 28/01 A3016 RMK AO2
KAZC 251915Z AUTO 29005KT 10SM SCT110 27/01 A3016 RMK AO2
KAZC 251855Z AUTO 00000KT 10SM SCT110 27/01 A3017 RMK AO2
KAZC 251835Z AUTO 19003KT 10SM CLR 27/01 A3017 RMK AO2
KAZC 251815Z AUTO 00000KT 10SM CLR 26/01 A3018 RMK AO2
KAZC 251755Z AUTO 00000KT 10SM SCT110 25/01 A3018 RMK AO2
KAZC 251735Z AUTO 00000KT 10SM SCT100 25/01 A3018 RMK AO2
KAZC 251715Z AUTO 29004KT 10SM SCT110 24/02 A3018 RMK AO2
KAZC 251655Z AUTO 27003KT 10SM CLR 23/02 A3018 RMK AO2
KAZC 251635Z AUTO 00000KT 10SM SCT110 22/02 A3018 RMK AO2
KAZC 251615Z AUTO 00000KT 10SM SCT110 21/02 A3018 RMK AO2
KAZC 251555Z AUTO 29003KT 10SM SCT110 20/02 A3018 RMK AO2
KAZC 251535Z AUTO 00000KT 10SM SCT110 18/04 A3017 RMK AO2
KAZC 251515Z AUTO 00000KT 10SM SCT110 15/05 A3017 RMK AO2
KAZC 251455Z AUTO 00000KT 10SM SCT110 13/05 A3017 RMK AO2
KAZC 251435Z AUTO 00000KT 10SM SCT110 13/04 A3016 RMK AO2
KAZC 251415Z AUTO 05003KT 10SM SCT110 11/04 A3015 RMK AO2
KAZC 251355Z AUTO 00000KT 10SM SCT110 10/03 A3015 RMK AO2
KAZC 251335Z AUTO 00000KT 10SM CLR 08/03 A3015 RMK AO2
KAZC 251315Z AUTO 09004KT 10SM SCT110 08/03 A3014 RMK AO2
KAZC 251255Z AUTO 08004KT 10SM CLR 09/03 A3013 RMK AO2
KAZC 251235Z AUTO 12004KT 10SM CLR 09/03 A3012 RMK AO2
KAZC 251215Z AUTO 00000KT 10SM CLR 09/02 A3012 RMK AO2
KAZC 251155Z AUTO 12004KT 10SM CLR 10/02 A3012 RMK AO2
KAZC 251135Z AUTO 13003KT 10SM CLR 10/02 A3011 RMK AO2
KAZC 251115Z AUTO 12005KT 10SM CLR 10/02 A3011 RMK AO2
KAZC 251055Z AUTO 14004KT 10SM CLR 09/03 A3010 RMK AO2
KAZC 251030Z AUTO 14003KT 10SM CLR 10/03 A3010 RMK AO2
KAZC 251015Z AUTO 14005KT 10SM CLR 10/03 A3010 RMK AO2
KAZC 250955Z AUTO 14003KT 10SM CLR 09/03 A3009 RMK AO2
KAZC 250935Z AUTO 00000KT 10SM CLR 11/02 A3009 RMK AO2
KAZC 250915Z AUTO 00000KT 10SM CLR 12/03 A3009 RMK AO2
KAZC 250855Z AUTO 18004KT 10SM CLR 14/03 A3009 RMK AO2
KAZC 250835Z AUTO 03006KT 10SM CLR 12/03 A3008 RMK AO2
KAZC 250815Z AUTO 10005KT 10SM CLR 13/03 A3008 RMK AO2
KAZC 250755Z AUTO 11006KT 10SM CLR 12/03 A3007 RMK AO2
KAZC 250735Z AUTO 12004KT 10SM CLR 11/03 A3007 RMK AO2
KAZC 250715Z AUTO 00000KT 10SM CLR 12/02 A3007 RMK AO2
KAZC 250655Z AUTO 15003KT 10SM CLR 12/03 A3006 RMK AO2
KAZC 250635Z AUTO 16003KT 10SM CLR 12/03 A3006 RMK AO2
KAZC 250615Z AUTO 00000KT 10SM CLR 12/03 A3006 RMK AO2
KAZC 250555Z AUTO 00000KT 10SM CLR 12/03 A3006 RMK AO2
KAZC 250535Z AUTO 00000KT 10SM CLR 12/03 A3006 RMK AO2
KAZC 250515Z AUTO 00000KT 10SM CLR 12/03 A3005 RMK AO2
KAZC 250455Z AUTO 00000KT 10SM CLR 13/03 A3005 RMK AO2
KAZC 250435Z AUTO 00000KT 10SM CLR 15/03 A3005 RMK AO2
KAZC 250415Z AUTO 00000KT 10SM CLR 16/03 A3004 RMK AO2
KAZC 250355Z AUTO 12004KT 10SM CLR 15/03 A3004 RMK AO2
KAZC 250335Z AUTO 00000KT 7SM CLR 16/03 A3004 RMK AO2
KAZC 250315Z AUTO 00000KT 10SM CLR 18/03 A3003 RMK AO2
KAZC 250255Z AUTO 00000KT 10SM CLR 18/02 A3003 RMK AO2
KAZC 250235Z AUTO 36003KT 10SM CLR 20/02 A3002 RMK AO2
KAZC 250215Z AUTO 00000KT 10SM CLR 23/01 A3002 RMK AO2
KAZC 250155Z AUTO 28004KT 10SM CLR 23/01 A3001 RMK AO2
KAZC 250135Z AUTO 29005KT 10SM CLR 25/01 A3001 RMK AO2
KAZC 250115Z AUTO 28009KT 10SM CLR 26/01 A3000 RMK AO2
KAZC 250055Z AUTO 30008KT 10SM CLR 26/01 A3000 RMK AO2
KAZC 250035Z AUTO 29011KT 10SM CLR 27/01 A3000 RMK AO2
KAZC 250015Z AUTO 29009G14KT 10SM CLR 28/02 A2999 RMK AO2
KAZC 242355Z AUTO 30012G18KT 10SM CLR 28/02 A2999 RMK AO2
KAZC 242335Z AUTO 29014G18KT 10SM SCT100 28/02 A2999 RMK AO2
KAZC 242315Z AUTO 27010G20KT 10SM SCT100 30/02 A2999 RMK AO2
KAZC 242255Z AUTO 29007G17KT 10SM CLR 30/02 A2999 RMK AO2
KAZC 242235Z AUTO 27014G21KT 10SM SCT100 30/03 A2999 RMK AO2